createdAt,value
2022-11-20T00:01:22.578Z,30.52
2022-11-20T00:03:49.715Z,41.42
2022-11-20T00:06:18.218Z,39.97
2022-11-20T00:08:45.801Z,61.35
2022-11-20T00:11:16.404Z,33.67
2022-11-20T00:13:44.252Z,37.70
2022-11-20T00:16:12.370Z,23.15
2022-11-20T00:18:38.946Z,30.45
2022-11-20T00:21:26.639Z,22.52
2022-11-20T00:23:55.229Z,24.13
2022-11-20T00:26:22.780Z,24.15
2022-11-20T00:28:54.283Z,22.38
2022-11-20T00:31:21.098Z,26.55
2022-11-20T00:33:47.850Z,24.40
2022-11-20T00:36:16.849Z,25.33
2022-11-20T00:38:43.954Z,24.55
2022-11-20T00:41:12.798Z,40.10
2022-11-20T00:43:39.496Z,28.40
2022-11-20T00:46:08.065Z,39.25
2022-11-20T00:48:34.705Z,31.50
2022-11-20T00:51:01.424Z,31.80
2022-11-20T00:53:28.154Z,53.50
2022-11-20T00:56:01.254Z,29.40
2022-11-20T01:01:03.652Z,27.48
2022-11-20T01:03:32.767Z,55.47
2022-11-20T01:06:07.623Z,32.58
2022-11-20T01:08:35.339Z,63.72
2022-11-20T01:11:03.136Z,52.53
2022-11-20T01:13:39.777Z,37.25
2022-11-20T01:16:19.601Z,103.72
2022-11-20T01:18:48.291Z,71.95
2022-11-20T01:21:17.149Z,58.05
2022-11-20T01:23:44.698Z,62.90
2022-11-20T01:26:13.670Z,42.80
2022-11-20T01:28:41.252Z,25.63
2022-11-20T01:31:18.144Z,37.03
2022-11-20T01:33:45.918Z,40.40
2022-11-20T01:36:13.030Z,32.42
2022-11-20T01:38:39.734Z,82.28
2022-11-20T01:41:06.809Z,97.38
2022-11-20T01:43:33.422Z,65.18
2022-11-20T01:46:20.144Z,88.95
2022-11-20T01:48:55.314Z,49.22
2022-11-20T01:51:36.563Z,35.10
2022-11-20T01:54:05.543Z,28.02
2022-11-20T01:56:33.052Z,31.13
2022-11-20T01:59:02.509Z,21.30
2022-11-20T02:01:29.198Z,22.33
2022-11-20T02:03:55.826Z,19.70
2022-11-20T02:06:27.333Z,20.85
2022-11-20T02:08:54.050Z,18.48
2022-11-20T02:11:20.867Z,18.30
2022-11-20T02:13:47.637Z,22.00
2022-11-20T02:16:34.178Z,23.05
2022-11-20T02:19:02.152Z,19.35
2022-11-20T02:21:38.553Z,18.42
2022-11-20T02:24:12.846Z,19.02
2022-11-20T02:26:41.581Z,21.00
2022-11-20T02:29:08.183Z,20.20
2022-11-20T02:31:39.044Z,16.23
2022-11-20T02:34:05.803Z,10.85
2022-11-20T02:36:33.392Z,10.98
2022-11-20T02:39:00.094Z,9.70
2022-11-20T02:41:37.903Z,10.88
2022-11-20T02:44:05.273Z,7.43
2022-11-20T02:46:32.919Z,8.40
2022-11-20T02:48:59.536Z,10.77
2022-11-20T02:51:26.124Z,10.15
2022-11-20T02:53:52.758Z,8.70
2022-11-20T02:56:19.305Z,7.82
2022-11-20T02:58:45.911Z,8.43
2022-11-20T03:01:12.605Z,7.10
2022-11-20T03:03:39.430Z,5.82
2022-11-20T03:06:06.361Z,5.55
2022-11-20T03:08:33.185Z,7.47
2022-11-20T03:11:06.078Z,9.50
2022-11-20T03:13:32.999Z,6.22
2022-11-20T03:15:59.546Z,6.57
2022-11-20T03:18:29.843Z,5.60
2022-11-20T03:21:00.158Z,5.72
2022-11-20T03:23:26.831Z,8.85
2022-11-20T03:25:53.566Z,5.32
2022-11-20T03:28:20.167Z,7.82
2022-11-20T03:30:46.731Z,5.90
2022-11-20T03:33:13.300Z,4.75
2022-11-20T03:35:39.849Z,4.25
2022-11-20T03:38:06.771Z,5.60
2022-11-20T03:40:34.610Z,4.28
2022-11-20T03:43:01.191Z,6.10
2022-11-20T03:45:27.767Z,4.22
2022-11-20T03:47:54.333Z,5.63
2022-11-20T03:50:20.945Z,5.07
2022-11-20T03:52:47.501Z,5.10
2022-11-20T03:55:14.117Z,4.85
2022-11-20T03:57:40.748Z,5.35
2022-11-20T04:00:07.834Z,4.47
2022-11-20T04:03:01.297Z,3.25
2022-11-20T04:05:28.031Z,5.03
2022-11-20T04:07:54.770Z,3.72
2022-11-20T04:10:21.408Z,3.42
2022-11-20T04:12:47.976Z,4.28
2022-11-20T04:15:14.682Z,3.88
2022-11-20T04:17:41.294Z,4.30
2022-11-20T04:20:08.343Z,5.28
2022-11-20T04:22:34.918Z,6.63
2022-11-20T04:25:01.501Z,4.32
2022-11-20T04:27:28.100Z,3.80
2022-11-20T04:29:54.746Z,3.80
2022-11-20T04:32:21.337Z,4.55
2022-11-20T04:34:47.931Z,4.15
2022-11-20T04:37:14.501Z,4.18
2022-11-20T04:39:41.217Z,3.97
2022-11-20T04:42:28.156Z,3.75
2022-11-20T04:44:55.028Z,3.40
2022-11-20T04:47:21.829Z,4.32
2022-11-20T04:49:48.511Z,4.00
2022-11-20T04:52:15.270Z,4.95
2022-11-20T04:54:41.877Z,3.83
2022-11-20T04:57:14.108Z,3.75
2022-11-20T04:59:41.212Z,3.70
2022-11-20T05:02:08.029Z,4.55
2022-11-20T05:04:34.668Z,4.28
2022-11-20T05:07:01.359Z,3.95
2022-11-20T05:09:28.008Z,6.60
2022-11-20T05:11:54.674Z,4.07
2022-11-20T05:14:21.271Z,4.57
2022-11-20T05:16:47.855Z,4.35
2022-11-20T05:19:14.464Z,4.13
2022-11-20T05:21:41.072Z,6.72
2022-11-20T05:24:08.101Z,3.40
2022-11-20T05:26:34.720Z,4.35
2022-11-20T05:29:01.312Z,5.72
2022-11-20T05:31:28.507Z,3.42
2022-11-20T05:33:56.532Z,3.47
2022-11-20T05:36:23.346Z,3.53
2022-11-20T05:38:51.126Z,3.25
2022-11-20T05:41:20.084Z,3.50
2022-11-20T05:43:48.091Z,3.83
2022-11-20T05:46:15.768Z,3.45
2022-11-20T05:48:43.574Z,3.83
2022-11-20T05:51:12.114Z,3.50
2022-11-20T05:53:42.441Z,3.90
2022-11-20T05:58:40.322Z,3.35
2022-11-20T06:01:07.745Z,3.60
2022-11-20T06:03:34.651Z,8.32
2022-11-20T06:06:01.599Z,4.38
2022-11-20T06:08:29.921Z,3.63
2022-11-20T06:10:56.639Z,4.60
2022-11-20T06:13:23.344Z,3.42
2022-11-20T06:15:53.831Z,2.90
2022-11-20T06:18:20.926Z,3.78
2022-11-20T06:20:47.586Z,4.13
2022-11-20T06:23:14.283Z,3.67
2022-11-20T06:25:42.123Z,2.88
2022-11-20T06:28:09.929Z,2.90
2022-11-20T06:30:36.861Z,8.20
2022-11-20T06:33:03.526Z,4.72
2022-11-20T06:35:30.203Z,2.97
2022-11-20T06:37:57.249Z,6.93
2022-11-20T06:40:24.038Z,4.07
2022-11-20T06:42:50.627Z,3.40
2022-11-20T06:45:17.324Z,4.43
2022-11-20T06:47:43.913Z,5.40
2022-11-20T06:50:10.622Z,3.65
2022-11-20T06:52:42.294Z,4.43
2022-11-20T06:55:10.271Z,3.20
2022-11-20T06:57:36.923Z,3.30
2022-11-20T07:00:04.090Z,4.53
2022-11-20T07:02:30.701Z,4.05
2022-11-20T07:04:57.288Z,5.22
2022-11-20T07:07:23.915Z,5.90
2022-11-20T07:09:50.539Z,4.18
2022-11-20T07:12:17.164Z,3.65
2022-11-20T07:14:43.773Z,3.25
2022-11-20T07:17:10.414Z,4.93
2022-11-20T07:19:37.015Z,3.10
2022-11-20T07:22:03.612Z,3.45
2022-11-20T07:24:30.234Z,2.72
2022-11-20T07:26:57.146Z,4.68
2022-11-20T07:29:24.029Z,4.70
2022-11-20T07:31:50.723Z,2.50
2022-11-20T07:34:17.366Z,2.45
2022-11-20T07:36:43.999Z,4.25
2022-11-20T07:39:10.599Z,4.88
2022-11-20T07:41:37.294Z,3.70
2022-11-20T07:44:04.061Z,3.70
2022-11-20T07:46:30.620Z,3.35
2022-11-20T07:48:57.334Z,2.85
2022-11-20T07:51:24.227Z,3.25
2022-11-20T07:53:54.320Z,4.25
2022-11-20T07:56:20.994Z,4.43
2022-11-20T07:58:47.677Z,2.90
2022-11-20T08:01:14.370Z,2.92
2022-11-20T08:03:41.111Z,3.38
2022-11-20T08:06:08.293Z,4.47
2022-11-20T08:08:37.824Z,5.22
2022-11-20T08:11:25.435Z,4.88
2022-11-20T08:14:10.468Z,2.80
2022-11-20T08:16:37.097Z,4.00
2022-11-20T08:19:03.694Z,2.70
2022-11-20T08:21:36.716Z,4.68
2022-11-20T08:24:05.132Z,4.60
2022-11-20T08:26:31.769Z,3.63
2022-11-20T08:28:58.643Z,5.85
2022-11-20T08:31:26.354Z,4.93
2022-11-20T08:33:53.350Z,3.90
2022-11-20T08:36:21.173Z,3.05
2022-11-20T08:38:49.782Z,2.85
2022-11-20T08:41:26.687Z,1.80
2022-11-20T08:44:06.421Z,2.45
2022-11-20T08:46:38.764Z,1.55
2022-11-20T08:49:07.292Z,1.50
2022-11-20T08:51:34.515Z,2.13
2022-11-20T08:54:01.714Z,2.22
2022-11-20T08:56:28.601Z,2.35
2022-11-20T08:59:20.098Z,3.22
2022-11-20T09:01:41.877Z,2.50
2022-11-20T09:04:08.627Z,2.47
2022-11-20T09:06:35.240Z,1.52
2022-11-20T09:09:06.290Z,0.95
2022-11-20T09:11:33.627Z,1.38
2022-11-20T09:14:01.119Z,1.73
2022-11-20T09:16:27.780Z,1.75
2022-11-20T09:19:20.313Z,0.95
2022-11-20T09:21:41.095Z,1.00
2022-11-20T09:24:08.086Z,1.00
2022-11-20T09:26:34.711Z,0.77
2022-11-20T09:29:01.337Z,1.88
2022-11-20T09:31:27.947Z,1.58
2022-11-20T09:33:54.615Z,1.05
2022-11-20T09:36:21.327Z,0.73
2022-11-20T09:38:48.348Z,0.85
2022-11-20T09:41:43.663Z,1.10
2022-11-20T09:44:19.249Z,1.13
2022-11-20T09:46:54.838Z,0.63
2022-11-20T09:49:58.159Z,2.58
2022-11-20T09:52:39.225Z,1.92
2022-11-20T09:55:06.006Z,2.17
2022-11-20T09:57:36.799Z,1.30
2022-11-20T10:00:06.134Z,2.50
2022-11-20T10:02:37.957Z,1.38
2022-11-20T10:05:17.971Z,0.77
2022-11-20T10:08:01.057Z,1.40
2022-11-20T10:10:44.367Z,2.28
2022-11-20T10:13:20.962Z,1.83
2022-11-20T10:15:56.666Z,3.10
2022-11-20T10:18:42.760Z,2.30
2022-11-20T10:21:43.899Z,1.83
2022-11-20T10:24:30.127Z,3.42
2022-11-20T10:27:10.254Z,1.35
2022-11-20T10:29:38.267Z,1.42
2022-11-20T10:32:09.681Z,1.48
2022-11-20T10:35:01.146Z,2.60
2022-11-20T10:37:28.625Z,1.90
2022-11-20T10:40:09.286Z,0.85
2022-11-20T10:42:43.456Z,3.50
2022-11-20T10:45:25.297Z,1.88
2022-11-20T10:48:08.955Z,1.90
2022-11-20T10:50:37.364Z,1.83
2022-11-20T10:53:06.424Z,1.95
2022-11-20T10:56:01.702Z,1.10
2022-11-20T10:58:52.461Z,1.85
2022-11-20T11:01:24.232Z,3.13
2022-11-20T11:03:54.536Z,2.72
2022-11-20T11:06:30.881Z,2.28
2022-11-20T11:08:59.604Z,2.35
2022-11-20T11:11:31.543Z,1.88
2022-11-20T11:14:11.353Z,2.35
2022-11-20T11:16:58.114Z,3.55
2022-11-20T11:19:30.804Z,1.40
2022-11-20T11:21:58.201Z,2.15
2022-11-20T11:24:44.957Z,2.28
2022-11-20T11:27:18.948Z,3.63
2022-11-20T11:29:46.394Z,2.10
2022-11-20T11:32:13.894Z,1.63
2022-11-20T11:34:40.549Z,1.50
2022-11-20T11:37:22.626Z,1.50
2022-11-20T11:40:03.973Z,1.33
2022-11-20T11:42:48.114Z,2.15
2022-11-20T11:45:18.326Z,1.65
2022-11-20T11:47:44.895Z,1.88
2022-11-20T11:50:11.463Z,3.65
2022-11-20T11:53:04.085Z,3.70
2022-11-20T11:55:49.324Z,3.00
2022-11-20T11:58:39.958Z,3.97
2022-11-20T12:01:19.398Z,1.88
2022-11-20T12:03:55.373Z,3.45
2022-11-20T12:06:22.010Z,4.00
2022-11-20T12:09:05.697Z,7.20
2022-11-20T12:11:58.160Z,3.60
2022-11-20T12:14:38.316Z,5.15
2022-11-20T12:17:05.249Z,3.53
2022-11-20T12:19:34.551Z,3.72
2022-11-20T12:22:03.389Z,4.53
2022-11-20T12:24:43.756Z,6.20
2022-11-20T12:27:37.312Z,2.00
2022-11-20T12:33:13.038Z,1.63
2022-11-20T12:35:55.104Z,1.75
2022-11-20T12:38:58.811Z,2.88
2022-11-20T12:42:08.735Z,1.27
2022-11-20T12:45:11.763Z,2.80
2022-11-20T12:48:09.432Z,3.47
2022-11-20T12:51:13.337Z,2.47
2022-11-20T12:53:45.190Z,2.35
2022-11-20T12:56:30.676Z,2.33
2022-11-20T12:59:17.413Z,2.97
2022-11-20T13:01:58.600Z,0.88
2022-11-20T13:04:37.497Z,0.95
2022-11-20T13:07:07.308Z,1.90
2022-11-20T13:09:34.107Z,1.35
2022-11-20T13:12:12.846Z,1.30
2022-11-20T13:15:12.899Z,0.77
2022-11-20T13:18:01.736Z,3.22
2022-11-20T13:20:28.729Z,4.47
2022-11-20T13:22:59.818Z,2.67
2022-11-20T13:25:27.867Z,2.10
2022-11-20T13:27:55.290Z,4.97
2022-11-20T13:30:23.569Z,4.65
2022-11-20T13:32:55.404Z,2.40
2022-11-20T13:35:55.771Z,1.85
2022-11-20T13:38:22.392Z,2.10
2022-11-20T13:40:51.968Z,1.20
2022-11-20T13:43:28.977Z,1.27
2022-11-20T13:46:00.577Z,1.88
2022-11-20T13:48:31.321Z,1.00
2022-11-20T13:51:05.887Z,2.17
2022-11-20T13:54:02.232Z,2.03
2022-11-20T13:56:40.295Z,1.63
2022-11-20T13:59:15.030Z,1.33
2022-11-20T14:01:41.939Z,2.50
2022-11-20T14:04:10.150Z,3.85
2022-11-20T14:06:44.221Z,1.55
2022-11-20T14:09:26.694Z,2.42
2022-11-20T14:11:53.345Z,2.20
2022-11-20T14:14:22.822Z,1.95
2022-11-20T14:16:50.564Z,3.03
2022-11-20T14:19:22.998Z,3.50
2022-11-20T14:21:51.310Z,2.10
2022-11-20T14:24:23.138Z,1.98
2022-11-20T14:26:50.950Z,1.17
2022-11-20T14:29:31.204Z,3.03
2022-11-20T14:31:57.894Z,3.13
2022-11-20T14:34:26.599Z,2.50
2022-11-20T14:37:01.135Z,1.20
2022-11-20T14:39:30.602Z,1.55
2022-11-20T14:41:57.277Z,2.78
2022-11-20T14:44:27.651Z,2.38
2022-11-20T14:46:54.283Z,2.00
2022-11-20T14:49:20.935Z,3.22
2022-11-20T14:51:47.774Z,5.00
2022-11-20T14:54:18.955Z,3.65
2022-11-20T14:57:02.982Z,4.55
2022-11-20T14:59:31.776Z,1.73
2022-11-20T15:02:08.931Z,5.20
2022-11-20T15:04:52.463Z,2.08
2022-11-20T15:07:27.346Z,1.73
2022-11-20T15:10:20.962Z,4.80
2022-11-20T15:15:44.856Z,3.28
2022-11-20T15:18:16.080Z,2.97
2022-11-20T15:20:43.182Z,3.08
2022-11-20T15:23:14.607Z,2.72
2022-11-20T15:25:42.228Z,5.95
2022-11-20T15:28:15.278Z,2.05
2022-11-20T15:33:09.964Z,2.67
2022-11-20T15:35:36.874Z,3.03
2022-11-20T15:38:03.446Z,1.13
2022-11-20T15:40:30.482Z,3.20
2022-11-20T15:43:13.305Z,2.10
2022-11-20T15:45:51.996Z,3.65
2022-11-20T15:48:23.817Z,6.68
2022-11-20T15:51:13.450Z,3.22
2022-11-20T15:53:41.580Z,3.58
2022-11-20T15:56:14.697Z,4.43
2022-11-20T16:01:12.845Z,6.47
2022-11-20T16:03:40.145Z,3.03
2022-11-20T16:06:06.947Z,6.88
2022-11-20T16:08:33.952Z,6.15
2022-11-20T16:11:00.641Z,6.32
2022-11-20T16:13:45.867Z,3.58
2022-11-20T16:16:23.922Z,5.65
2022-11-20T16:18:51.416Z,4.82
2022-11-20T16:21:18.203Z,7.18
2022-11-20T16:23:44.896Z,4.28
2022-11-20T16:26:13.371Z,5.80
2022-11-20T16:28:40.224Z,6.25
2022-11-20T16:31:14.964Z,4.43
2022-11-20T16:33:41.713Z,6.53
2022-11-20T16:36:13.135Z,4.97
2022-11-20T16:38:39.808Z,5.63
2022-11-20T16:41:07.298Z,5.68
2022-11-20T16:43:33.975Z,4.50
2022-11-20T16:46:00.761Z,4.85
2022-11-20T16:48:27.987Z,6.82
2022-11-20T16:50:54.650Z,4.00
2022-11-20T16:53:22.476Z,10.98
2022-11-20T16:55:49.291Z,13.60
2022-11-20T16:58:16.073Z,9.43
2022-11-20T17:00:48.393Z,5.55
2022-11-20T17:03:18.224Z,6.32
2022-11-20T17:05:44.891Z,5.85
2022-11-20T17:08:11.786Z,5.70
2022-11-20T17:10:38.425Z,10.15
2022-11-20T17:13:05.115Z,4.75
2022-11-20T17:15:32.106Z,4.50
2022-11-20T17:17:58.716Z,3.75
2022-11-20T17:20:25.395Z,3.97
2022-11-20T17:22:52.063Z,4.03
2022-11-20T17:25:18.724Z,4.40
2022-11-20T17:27:45.305Z,5.75
2022-11-20T17:30:12.061Z,4.00
2022-11-20T17:32:39.853Z,4.28
2022-11-20T17:35:06.707Z,3.75
2022-11-20T17:37:33.302Z,5.40
2022-11-20T17:39:59.923Z,7.93
2022-11-20T17:42:36.967Z,8.77
2022-11-20T17:45:04.739Z,8.48
2022-11-20T17:47:31.355Z,8.13
2022-11-20T17:49:58.034Z,9.55
2022-11-20T17:52:24.652Z,5.30
2022-11-20T17:54:55.839Z,5.35
2022-11-20T17:57:43.681Z,7.05
2022-11-20T18:00:13.233Z,5.72
2022-11-20T18:02:40.196Z,5.10
2022-11-20T18:05:07.109Z,4.57
2022-11-20T18:07:38.508Z,4.28
2022-11-20T18:10:08.870Z,4.43
2022-11-20T18:12:35.486Z,3.38
2022-11-20T18:15:02.162Z,4.43
2022-11-20T18:17:28.872Z,5.07
2022-11-20T18:20:21.779Z,4.47
2022-11-20T18:22:42.106Z,2.78
2022-11-20T18:25:09.264Z,3.53
2022-11-20T18:27:35.915Z,5.43
2022-11-20T18:30:02.599Z,4.55
2022-11-20T18:32:29.299Z,3.03
2022-11-20T18:34:55.899Z,2.78
2022-11-20T18:37:22.572Z,3.50
2022-11-20T18:39:50.531Z,4.40
2022-11-20T18:42:36.011Z,3.10
2022-11-20T18:45:04.599Z,4.97
2022-11-20T18:47:34.116Z,4.55
2022-11-20T18:50:01.544Z,3.80
2022-11-20T18:52:32.145Z,3.75
2022-11-20T18:54:58.765Z,3.13
2022-11-20T18:57:27.110Z,4.07
2022-11-20T18:59:54.721Z,3.03
2022-11-20T19:02:22.078Z,3.40
2022-11-20T19:04:48.907Z,4.57
2022-11-20T19:07:15.782Z,2.50
2022-11-20T19:09:44.406Z,3.22
2022-11-20T19:12:12.195Z,4.88
2022-11-20T19:14:38.819Z,3.97
2022-11-20T19:17:06.862Z,2.67
2022-11-20T19:19:34.531Z,4.72
2022-11-20T19:22:01.127Z,3.38
2022-11-20T19:24:28.492Z,4.20
2022-11-20T19:26:58.331Z,2.80
2022-11-20T19:29:25.809Z,2.40
2022-11-20T19:31:53.504Z,2.10
2022-11-20T19:34:20.113Z,6.18
2022-11-20T19:36:46.768Z,2.60
2022-11-20T19:39:13.475Z,4.40
2022-11-20T19:41:41.075Z,2.38
2022-11-20T19:44:12.774Z,4.40
2022-11-20T19:46:40.036Z,3.13
2022-11-20T19:49:10.265Z,3.83
2022-11-20T19:51:38.449Z,2.80
2022-11-20T19:54:06.317Z,4.32
2022-11-20T19:56:33.645Z,2.45
2022-11-20T19:59:00.561Z,2.30
2022-11-20T20:01:29.386Z,3.03
2022-11-20T20:03:57.564Z,3.30
2022-11-20T20:06:26.255Z,1.10
2022-11-20T20:09:06.985Z,0.60
2022-11-20T20:11:34.343Z,1.23
2022-11-20T20:14:02.603Z,0.82
2022-11-20T20:16:29.493Z,0.98
2022-11-20T20:18:57.712Z,1.50
2022-11-20T20:21:24.647Z,1.65
2022-11-20T20:23:55.583Z,1.25
2022-11-20T20:26:23.479Z,0.60
2022-11-20T20:28:50.536Z,2.22
2022-11-20T20:31:19.678Z,1.30
2022-11-20T20:33:46.517Z,0.82
2022-11-20T20:36:14.961Z,0.95
2022-11-20T20:38:42.524Z,1.85
2022-11-20T20:41:09.441Z,0.93
2022-11-20T20:43:56.834Z,1.05
2022-11-20T20:46:23.932Z,0.85
2022-11-20T20:48:54.335Z,0.50
2022-11-20T20:51:22.322Z,1.10
2022-11-20T20:53:49.026Z,0.63
2022-11-20T20:56:15.747Z,1.33
2022-11-20T20:58:42.393Z,1.02
2022-11-20T21:01:13.955Z,0.75
2022-11-20T21:03:40.919Z,0.35
2022-11-20T21:06:08.058Z,1.02
2022-11-20T21:08:36.992Z,1.23
2022-11-20T21:11:08.960Z,1.27
2022-11-20T21:13:36.370Z,0.60
2022-11-20T21:16:03.329Z,0.50
2022-11-20T21:18:30.094Z,1.02
2022-11-20T21:21:15.330Z,1.00
2022-11-20T21:23:42.208Z,1.52
2022-11-20T21:26:09.202Z,0.70
2022-11-20T21:28:37.418Z,0.43
2022-11-20T21:31:09.065Z,0.40
2022-11-20T21:33:44.745Z,0.40
2022-11-20T21:36:13.694Z,1.35
2022-11-20T21:38:40.522Z,0.70
2022-11-20T21:41:08.121Z,0.63
2022-11-20T21:43:34.975Z,0.77
2022-11-20T21:46:12.724Z,0.60
2022-11-20T21:48:40.288Z,0.50
2022-11-20T21:51:18.130Z,0.32
2022-11-20T21:53:45.386Z,1.05
2022-11-20T21:56:16.422Z,1.67
2022-11-20T21:58:46.786Z,1.33
2022-11-20T22:01:18.609Z,1.48
2022-11-20T22:03:53.405Z,2.17
2022-11-20T22:06:21.357Z,1.70
2022-11-20T22:08:49.022Z,1.42
2022-11-20T22:11:17.885Z,0.90
2022-11-20T22:14:03.515Z,5.93
2022-11-20T22:16:30.091Z,2.00
2022-11-20T22:18:57.529Z,0.82
2022-11-20T22:21:28.239Z,0.47
2022-11-20T22:23:55.097Z,0.70
2022-11-20T22:26:24.028Z,1.35
2022-11-20T22:28:52.256Z,2.28
2022-11-20T22:31:19.780Z,2.78
2022-11-20T22:33:46.524Z,1.13
2022-11-20T22:36:18.028Z,1.52
2022-11-20T22:38:44.821Z,1.88
2022-11-20T22:41:16.307Z,0.30
2022-11-20T22:43:44.013Z,1.17
2022-11-20T22:46:11.670Z,1.25
2022-11-20T22:48:40.096Z,1.15
2022-11-20T22:51:13.138Z,0.55
2022-11-20T22:56:08.105Z,1.85
2022-11-20T22:58:36.153Z,3.40
2022-11-20T23:01:07.867Z,0.57
2022-11-20T23:03:34.659Z,1.38
2022-11-20T23:06:01.923Z,0.52
2022-11-20T23:08:28.627Z,1.30
2022-11-20T23:10:59.484Z,3.22
2022-11-20T23:13:26.298Z,1.23
2022-11-20T23:15:52.943Z,1.33
2022-11-20T23:18:19.603Z,3.03
2022-11-20T23:20:46.241Z,2.05
2022-11-20T23:23:12.814Z,1.17
2022-11-20T23:25:39.435Z,0.82
2022-11-20T23:28:06.014Z,0.88
2022-11-20T23:30:32.647Z,0.75
2022-11-20T23:32:59.246Z,0.50
2022-11-20T23:35:25.836Z,0.30
2022-11-20T23:37:52.443Z,1.38
2022-11-20T23:40:19.089Z,1.23
2022-11-20T23:43:04.302Z,1.05
2022-11-20T23:45:30.915Z,1.15
2022-11-20T23:47:57.565Z,1.45
2022-11-20T23:50:24.161Z,2.90
2022-11-20T23:52:50.767Z,0.95
2022-11-20T23:55:17.415Z,0.50
2022-11-20T23:57:43.990Z,0.77
